Time;durP1;ratioP1;P1;durP2;ratioP2;P2;SDS_P1;SDS_P2;PMS_P1;PMS_P2;Temp;Humidity;BMP_temperature;BMP_pressure;BME280_temperature;BME280_humidity;BME280_pressure;Samples;Min_cycle;Max_cycle;Signal;HPM_P1;HPM_P2
2021/04/19 00:00:32;;;;;;;10.93;9.83;;;8.50;99.90;;;;;;5093465;28;20209;-71
2021/04/19 00:02:59;;;;;;;11.93;10.77;;;8.50;99.90;;;;;;5093500;28;20673;-70
2021/04/19 00:05:25;;;;;;;12.37;11.27;;;8.50;99.90;;;;;;5093447;28;20577;-74
2021/04/19 00:07:52;;;;;;;14.17;10.13;;;8.40;99.90;;;;;;5093854;28;20236;-67
2021/04/19 00:10:20;;;;;;;15.83;10.60;;;8.40;99.90;;;;;;5094276;28;20224;-70
2021/04/19 00:12:47;;;;;;;11.33;10.10;;;8.40;99.90;;;;;;5093411;28;20583;-71
2021/04/19 00:15:20;;;;;;;12.77;10.27;;;8.40;99.90;;;;;;5093436;28;20206;-73
2021/04/19 00:17:47;;;;;;;11.20;10.10;;;8.30;99.90;;;;;;5093689;28;20213;-71
2021/04/19 00:20:15;;;;;;;12.77;11.20;;;8.20;99.90;;;;;;5093332;28;20209;-70
2021/04/19 00:22:41;;;;;;;14.57;10.30;;;8.00;99.90;;;;;;5093170;28;20606;-70
2021/04/19 00:25:09;;;;;;;11.83;10.53;;;8.10;99.90;;;;;;5093490;28;20232;-65
2021/04/19 00:27:36;;;;;;;14.53;11.30;;;7.90;99.90;;;;;;5092843;28;20233;-68
2021/04/19 00:30:05;;;;;;;13.33;11.03;;;7.90;99.90;;;;;;5093018;28;20699;-72
2021/04/19 00:32:32;;;;;;;12.27;10.23;;;8.00;99.90;;;;;;5093257;28;20205;-70
2021/04/19 00:34:59;;;;;;;12.13;10.50;;;7.80;99.90;;;;;;5093373;28;20201;-74
2021/04/19 00:37:25;;;;;;;13.63;11.03;;;7.90;99.90;;;;;;5092829;28;20208;-69
2021/04/19 00:39:52;;;;;;;12.97;10.83;;;7.90;99.90;;;;;;5093765;28;20205;-75
2021/04/19 00:42:18;;;;;;;13.47;11.17;;;7.90;99.90;;;;;;5092165;28;20669;-71
2021/04/19 00:44:45;;;;;;;12.80;11.37;;;7.90;99.90;;;;;;5092845;28;20585;-69
2021/04/19 00:47:11;;;;;;;12.87;11.50;;;7.90;99.90;;;;;;5092965;28;20647;-72
2021/04/19 00:49:39;;;;;;;17.37;13.67;;;7.90;99.90;;;;;;5092822;28;20201;-66
2021/04/19 00:52:07;;;;;;;15.77;14.07;;;7.80;99.90;;;;;;5093237;28;20619;-66
2021/04/19 00:54:34;;;;;;;16.47;14.77;;;7.80;99.90;;;;;;5092557;28;20205;-71
2021/04/19 00:57:00;;;;;;;17.50;15.50;;;7.80;99.90;;;;;;5092734;28;20285;-69
2021/04/19 00:59:27;;;;;;;23.77;19.10;;;7.80;99.90;;;;;;5092482;28;20209;-72
2021/04/19 01:01:53;;;;;;;23.87;20.33;;;7.60;99.90;;;;;;5093001;28;20259;-68
2021/04/19 01:04:20;;;;;;;21.57;15.50;;;7.60;99.90;;;;;;5093310;28;20206;-70
2021/04/19 01:06:48;;;;;;;22.10;17.73;;;7.60;99.90;;;;;;5092166;28;20226;-68
2021/04/19 01:09:15;;;;;;;15.73;13.77;;;7.50;99.90;;;;;;5092762;28;20201;-68
2021/04/19 01:11:41;;;;;;;12.37;10.53;;;7.50;99.90;;;;;;5091654;28;20254;-71
2021/04/19 01:14:08;;;;;;;12.23;10.97;;;7.50;99.90;;;;;;5092841;28;20201;-70
2021/04/19 01:16:34;;;;;;;13.37;10.93;;;7.60;99.90;;;;;;5092040;28;20206;-71
2021/04/19 01:19:01;;;;;;;11.47;10.20;;;7.50;99.90;;;;;;5092463;28;20209;-68
2021/04/19 01:21:28;;;;;;;13.63;10.43;;;7.50;99.90;;;;;;5092250;28;20282;-69
2021/04/19 01:23:55;;;;;;;13.03;9.70;;;7.50;99.90;;;;;;5064750;28;20205;-69
2021/04/19 01:26:21;;;;;;;12.37;11.13;;;7.50;99.90;;;;;;5092227;28;20611;-66
2021/04/19 01:28:48;;;;;;;11.60;10.00;;;7.40;99.90;;;;;;5092103;28;20612;-67
2021/04/19 01:31:14;;;;;;;15.53;11.30;;;7.40;99.90;;;;;;5092365;28;20619;-69
2021/04/19 01:33:41;;;;;;;11.43;10.33;;;7.30;99.90;;;;;;5091553;28;20213;-69
2021/04/19 01:36:07;;;;;;;11.93;10.73;;;7.30;99.90;;;;;;5092002;28;20684;-71
2021/04/19 01:38:35;;;;;;;11.13;9.97;;;7.30;99.90;;;;;;5091793;28;20613;-68
2021/04/19 01:41:01;;;;;;;12.63;11.20;;;7.20;99.90;;;;;;5091491;28;20712;-69
2021/04/19 01:43:28;;;;;;;11.13;9.57;;;7.00;99.90;;;;;;5091896;28;20201;-70
2021/04/19 01:45:54;;;;;;;11.93;10.73;;;6.80;99.90;;;;;;5091758;28;20208;-68
2021/04/19 01:48:22;;;;;;;10.50;9.60;;;6.90;99.90;;;;;;5092017;28;20700;-66
2021/04/19 01:50:50;;;;;;;11.63;10.43;;;7.00;99.90;;;;;;5091730;28;20668;-67
2021/04/19 01:53:16;;;;;;;10.00;9.03;;;7.10;99.90;;;;;;5091593;28;20201;-66
2021/04/19 01:55:45;;;;;;;12.13;10.00;;;7.20;99.90;;;;;;5091424;28;20294;-69
2021/04/19 01:58:13;;;;;;;14.17;10.03;;;7.10;99.90;;;;;;5091425;28;20757;-69
2021/04/19 02:00:42;;;;;;;10.83;9.83;;;7.10;99.90;;;;;;5091215;28;20688;-66
2021/04/19 02:03:19;;;;;;;10.40;9.40;;;7.10;99.90;;;;;;5091355;28;20228;-69
2021/04/19 02:05:53;;;;;;;10.67;9.43;;;7.10;99.90;;;;;;5091090;28;20205;-67
2021/04/19 02:08:27;;;;;;;9.80;8.80;;;7.10;99.90;;;;;;5091616;28;20212;-69
2021/04/19 02:10:58;;;;;;;10.90;9.80;;;7.10;99.90;;;;;;5091583;28;20208;-71
2021/04/19 02:13:36;;;;;;;12.33;10.97;;;7.10;99.90;;;;;;5090949;28;20224;-68
2021/04/19 02:16:10;;;;;;;11.70;10.50;;;7.30;99.90;;;;;;5091322;28;20206;-67
2021/04/19 02:18:44;;;;;;;9.50;8.63;;;7.00;99.90;;;;;;5090897;28;20634;-67
2021/04/19 02:21:16;;;;;;;12.40;8.70;;;7.00;99.90;;;;;;5091180;28;20745;-69
2021/04/19 02:23:49;;;;;;;13.63;10.60;;;7.20;99.90;;;;;;5090698;28;20608;-68
2021/04/19 02:26:20;;;;;;;10.33;9.43;;;6.90;99.90;;;;;;5091286;28;20240;-68
2021/04/19 02:28:52;;;;;;;13.27;9.27;;;6.90;99.90;;;;;;5082118;28;20296;-66
2021/04/19 02:31:21;;;;;;;9.10;8.17;;;7.30;99.90;;;;;;5091268;28;20201;-66
2021/04/19 02:33:50;;;;;;;11.40;8.47;;;7.10;99.90;;;;;;5091291;28;20198;-70
2021/04/19 02:36:17;;;;;;;10.03;9.03;;;6.90;99.90;;;;;;5091087;28;20255;-65
2021/04/19 02:38:49;;;;;;;13.57;10.47;;;7.20;99.90;;;;;;5090253;28;20222;-70
2021/04/19 02:41:19;;;;;;;10.33;9.20;;;7.20;99.90;;;;;;5090807;28;20246;-71
2021/04/19 02:43:47;;;;;;;10.50;9.43;;;7.00;99.90;;;;;;5090484;28;20224;-70
2021/04/19 02:46:15;;;;;;;12.97;9.03;;;7.10;99.90;;;;;;5090593;28;20205;-71
2021/04/19 02:48:44;;;;;;;9.80;8.53;;;7.00;99.90;;;;;;5090197;28;20590;-69
2021/04/19 02:51:11;;;;;;;10.57;9.47;;;7.00;99.90;;;;;;5090662;28;20216;-74
2021/04/19 02:53:39;;;;;;;12.67;10.07;;;7.10;99.90;;;;;;5090013;28;20802;-71
2021/04/19 02:56:08;;;;;;;11.50;10.30;;;7.00;99.90;;;;;;5090831;28;20205;-67
2021/04/19 02:58:40;;;;;;;12.57;9.97;;;6.90;99.90;;;;;;5090560;28;20208;-70
2021/04/19 03:01:10;;;;;;;10.87;9.87;;;7.00;99.90;;;;;;5090869;28;20202;-68
2021/04/19 03:03:41;;;;;;;11.37;10.20;;;7.10;99.90;;;;;;5061647;28;20197;-71
2021/04/19 03:06:10;;;;;;;11.53;10.37;;;6.80;99.90;;;;;;5090442;28;20262;-68
2021/04/19 03:08:40;;;;;;;8.70;7.83;;;6.70;99.90;;;;;;5089893;28;20205;-68
2021/04/19 03:11:12;;;;;;;9.93;9.03;;;6.80;99.90;;;;;;5090755;28;20210;-68
2021/04/19 03:13:42;;;;;;;10.53;9.33;;;6.90;99.90;;;;;;5090060;28;20206;-66
2021/04/19 03:16:09;;;;;;;13.97;9.57;;;6.80;99.90;;;;;;5090531;28;20202;-71
2021/04/19 03:18:39;;;;;;;10.63;9.57;;;6.70;99.90;;;;;;5089940;28;20673;-68
2021/04/19 03:21:12;;;;;;;11.07;10.07;;;6.60;99.90;;;;;;5090459;28;20209;-68
2021/04/19 03:23:41;;;;;;;12.93;8.87;;;6.70;99.90;;;;;;5090004;28;20206;-68
2021/04/19 03:26:10;;;;;;;10.27;9.07;;;6.80;99.90;;;;;;5090522;28;20208;-68
2021/04/19 03:28:40;;;;;;;10.13;9.13;;;6.70;99.90;;;;;;5090000;28;20209;-67
2021/04/19 03:31:10;;;;;;;10.30;9.20;;;6.70;99.90;;;;;;5090458;28;20205;-69
2021/04/19 03:33:40;;;;;;;9.53;8.73;;;6.70;99.90;;;;;;5089789;28;20726;-67
2021/04/19 03:36:09;;;;;;;12.63;9.13;;;6.70;99.90;;;;;;5090337;28;20254;-68
2021/04/19 03:38:37;;;;;;;9.37;8.57;;;6.70;99.90;;;;;;5089820;28;20206;-67
2021/04/19 03:41:04;;;;;;;11.30;9.50;;;6.60;99.90;;;;;;5090530;28;20220;-67
2021/04/19 03:43:31;;;;;;;11.63;9.37;;;6.50;99.90;;;;;;5089939;28;20217;-67
2021/04/19 03:46:03;;;;;;;10.83;9.13;;;6.60;99.90;;;;;;5089974;28;20262;-70
2021/04/19 03:48:30;;;;;;;11.20;8.67;;;6.40;99.90;;;;;;5090140;28;20570;-69
2021/04/19 03:51:02;;;;;;;9.80;8.80;;;6.30;99.90;;;;;;5089803;28;20206;-71
2021/04/19 03:53:30;;;;;;;9.27;8.33;;;6.40;99.90;;;;;;5089964;28;20258;-71
2021/04/19 03:55:59;;;;;;;15.53;9.27;;;6.40;99.90;;;;;;5075915;28;20206;-68
2021/04/19 03:58:28;;;;;;;22.33;9.03;;;6.40;99.90;;;;;;5089819;28;20584;-68
2021/04/19 04:00:56;;;;;;;9.03;8.13;;;6.40;99.90;;;;;;5090130;28;20292;-67
2021/04/19 04:03:25;;;;;;;10.17;8.63;;;6.40;99.90;;;;;;5090328;28;20619;-68
2021/04/19 04:05:51;;;;;;;9.87;8.83;;;6.20;99.90;;;;;;5090038;28;20592;-71
2021/04/19 04:08:18;;;;;;;13.63;9.80;;;6.20;99.90;;;;;;5090029;28;20705;-69
2021/04/19 04:10:46;;;;;;;11.73;8.90;;;6.20;99.90;;;;;;5089386;28;20213;-67
2021/04/19 04:13:12;;;;;;;12.57;9.73;;;6.20;99.90;;;;;;5089897;28;20205;-70
2021/04/19 04:15:50;;;;;;;12.43;9.53;;;6.20;99.90;;;;;;5091287;28;20212;-67
2021/04/19 04:18:16;;;;;;;11.37;9.93;;;6.20;99.90;;;;;;5093631;28;20216;-71
2021/04/19 04:20:43;;;;;;;9.53;8.63;;;6.20;99.90;;;;;;5093038;28;20201;-71
2021/04/19 04:23:10;;;;;;;10.27;9.27;;;6.20;99.90;;;;;;5093262;28;20580;-72
2021/04/19 04:25:37;;;;;;;13.20;8.63;;;6.10;99.90;;;;;;5093157;28;20205;-71
2021/04/19 04:28:05;;;;;;;9.80;9.00;;;6.10;99.90;;;;;;5093462;28;20233;-71
2021/04/19 04:30:34;;;;;;;10.40;8.47;;;6.10;99.90;;;;;;5093381;28;20206;-71
2021/04/19 04:33:01;;;;;;;9.87;8.47;;;6.00;99.90;;;;;;5093458;28;20375;-71
2021/04/19 04:35:28;;;;;;;11.27;9.03;;;6.10;99.90;;;;;;5092756;28;20201;-69
2021/04/19 04:37:57;;;;;;;9.53;8.03;;;6.10;99.90;;;;;;5093285;28;20210;-69
2021/04/19 04:40:23;;;;;;;10.73;9.23;;;6.10;99.90;;;;;;5093130;28;20201;-65
2021/04/19 04:42:54;;;;;;;8.37;7.53;;;6.10;99.90;;;;;;5093646;28;20198;-70
2021/04/19 04:45:21;;;;;;;10.03;9.03;;;6.10;99.90;;;;;;5091623;28;20686;-66
2021/04/19 04:47:54;;;;;;;12.10;9.23;;;6.10;99.90;;;;;;5071902;28;20230;-68
2021/04/19 04:50:25;;;;;;;10.53;8.53;;;6.00;99.90;;;;;;5084936;28;20213;-71
2021/04/19 04:53:00;;;;;;;11.27;8.27;;;5.80;99.90;;;;;;5083855;28;20584;-67
2021/04/19 04:55:29;;;;;;;9.57;7.60;;;5.80;99.90;;;;;;5092752;28;20204;-72
2021/04/19 04:57:56;;;;;;;10.67;8.03;;;5.90;99.90;;;;;;5092294;28;20263;-66
2021/04/19 05:00:23;;;;;;;11.57;8.73;;;5.90;99.90;;;;;;5093079;28;20263;-69
2021/04/19 05:02:51;;;;;;;13.33;8.23;;;6.00;99.90;;;;;;5092844;28;20209;-71
2021/04/19 05:05:18;;;;;;;12.10;9.03;;;5.90;99.90;;;;;;5086749;28;20669;-69
2021/04/19 05:07:45;;;;;;;12.67;8.53;;;5.90;99.90;;;;;;5092381;28;20236;-70
2021/04/19 05:10:14;;;;;;;13.30;9.17;;;5.90;99.90;;;;;;5092903;28;20209;-68
2021/04/19 05:12:41;;;;;;;15.33;9.67;;;6.00;99.90;;;;;;5092343;28;20296;-68
2021/04/19 05:15:12;;;;;;;11.70;9.50;;;6.00;99.90;;;;;;5092600;28;20228;-67
2021/04/19 05:17:39;;;;;;;13.13;8.50;;;6.00;99.90;;;;;;5091978;28;20205;-67
2021/04/19 05:20:07;;;;;;;11.90;7.87;;;5.90;99.90;;;;;;5092195;28;20698;-71
2021/04/19 05:22:34;;;;;;;10.47;8.77;;;5.90;99.90;;;;;;5092389;28;20212;-74
2021/04/19 05:25:01;;;;;;;9.77;8.83;;;5.90;99.90;;;;;;5092167;28;20262;-75
2021/04/19 05:27:29;;;;;;;10.70;8.33;;;5.90;99.90;;;;;;5091187;28;20236;-73
2021/04/19 05:29:57;;;;;;;12.60;8.70;;;5.90;99.90;;;;;;5092246;28;20233;-71
2021/04/19 05:32:24;;;;;;;9.40;8.40;;;5.90;99.90;;;;;;5091947;28;20209;-67
2021/04/19 05:34:51;;;;;;;11.40;9.00;;;6.00;99.90;;;;;;5092750;28;20216;-73
2021/04/19 05:37:18;;;;;;;10.47;8.10;;;6.10;99.90;;;;;;5092402;28;20201;-69
2021/04/19 05:39:45;;;;;;;11.77;8.17;;;6.10;99.90;;;;;;5091910;28;20232;-75
2021/04/19 05:42:13;;;;;;;13.20;8.97;;;6.10;99.90;;;;;;5088252;28;20711;-74
2021/04/19 05:44:41;;;;;;;16.63;7.93;;;6.10;99.90;;;;;;5091758;28;20304;-70
2021/04/19 05:47:09;;;;;;;21.13;10.70;;;6.10;99.90;;;;;;5071458;28;20304;-73
2021/04/19 05:49:36;;;;;;;14.07;11.37;;;6.20;99.90;;;;;;5082047;28;20694;-69
2021/04/19 05:52:06;;;;;;;15.53;10.97;;;6.30;99.90;;;;;;5090271;28;20205;-70
2021/04/19 05:54:34;;;;;;;14.17;11.10;;;6.30;99.90;;;;;;5070074;28;20198;-69
2021/04/19 05:57:09;;;;;;;15.10;10.60;;;6.40;99.90;;;;;;5068041;28;20217;-69
2021/04/19 05:59:48;;;;;;;18.03;10.87;;;6.40;99.90;;;;;;5085024;28;20201;-69
2021/04/19 06:02:21;;;;;;;13.37;9.30;;;6.50;99.90;;;;;;5082115;28;20198;-70
2021/04/19 06:04:53;;;;;;;14.20;9.33;;;6.70;99.90;;;;;;5087904;28;20668;-70
2021/04/19 06:07:27;;;;;;;14.70;9.20;;;6.80;99.90;;;;;;5089916;28;20247;-68
2021/04/19 06:10:02;;;;;;;13.27;8.43;;;6.90;99.90;;;;;;5087633;28;20201;-68
2021/04/19 06:12:33;;;;;;;11.70;8.70;;;7.00;99.90;;;;;;5058286;28;20202;-67
2021/04/19 06:15:04;;;;;;;13.43;9.57;;;7.00;99.90;;;;;;5064984;28;20198;-71
2021/04/19 06:17:33;;;;;;;12.03;9.93;;;7.10;99.90;;;;;;5079490;28;20246;-72
2021/04/19 06:19:59;;;;;;;12.00;8.97;;;7.20;99.90;;;;;;5076367;28;20201;-72
2021/04/19 06:22:26;;;;;;;14.07;9.33;;;7.30;99.90;;;;;;5082170;28;20205;-68
2021/04/19 06:24:53;;;;;;;15.07;9.57;;;7.30;99.90;;;;;;5081135;28;20203;-68
2021/04/19 06:27:20;;;;;;;11.50;8.47;;;7.40;99.90;;;;;;5071466;28;20597;-66
2021/04/19 06:29:46;;;;;;;12.53;8.47;;;7.40;99.90;;;;;;5073291;28;20243;-67
2021/04/19 06:32:15;;;;;;;10.53;8.77;;;7.50;99.90;;;;;;5077308;28;20216;-69
2021/04/19 06:34:42;;;;;;;9.73;8.63;;;7.60;99.90;;;;;;5081125;28;20210;-70
2021/04/19 06:37:09;;;;;;;9.77;8.87;;;7.80;99.90;;;;;;5079181;28;20209;-72
2021/04/19 06:39:36;;;;;;;13.90;8.50;;;7.80;99.90;;;;;;5079565;28;20289;-72
2021/04/19 06:42:03;;;;;;;16.50;8.97;;;8.00;99.90;;;;;;5065088;28;20211;-70
2021/04/19 06:44:30;;;;;;;11.23;8.90;;;8.00;99.90;;;;;;5086345;28;20241;-72
2021/04/19 06:46:58;;;;;;;12.80;8.37;;;8.00;99.90;;;;;;5081491;28;20229;-73
2021/04/19 06:49:26;;;;;;;13.63;8.70;;;7.90;99.90;;;;;;5061957;28;20233;-71
2021/04/19 06:51:55;;;;;;;14.57;7.97;;;7.80;99.90;;;;;;5078171;28;20202;-70
2021/04/19 06:54:22;;;;;;;8.83;7.63;;;7.90;99.90;;;;;;5066474;28;20705;-69
2021/04/19 06:56:50;;;;;;;10.13;8.10;;;8.00;99.90;;;;;;5074334;28;20214;-69
2021/04/19 06:59:19;;;;;;;9.33;8.40;;;8.20;99.90;;;;;;5072275;28;20204;-69
2021/04/19 07:01:50;;;;;;;10.47;8.50;;;8.20;99.90;;;;;;5084935;28;20213;-68
2021/04/19 07:04:20;;;;;;;11.00;8.60;;;8.40;99.90;;;;;;5081975;28;20201;-68
2021/04/19 07:06:49;;;;;;;19.00;10.47;;;8.50;99.90;;;;;;5086802;28;20610;-68
2021/04/19 07:09:24;;;;;;;9.07;7.90;;;8.80;99.90;;;;;;5076089;28;20206;-70
2021/04/19 07:11:53;;;;;;;11.77;8.33;;;8.90;99.90;;;;;;5066021;28;20205;-71
2021/04/19 07:14:20;;;;;;;10.77;8.83;;;9.00;99.90;;;;;;5055147;28;20255;-72
2021/04/19 07:16:48;;;;;;;9.67;8.80;;;9.00;99.90;;;;;;5061807;28;20206;-72
2021/04/19 07:19:16;;;;;;;10.40;8.93;;;9.20;99.90;;;;;;5062987;28;20214;-72
2021/04/19 07:21:43;;;;;;;12.40;9.67;;;9.60;99.90;;;;;;5070216;28;20213;-72
2021/04/19 07:24:11;;;;;;;12.33;9.17;;;9.30;99.90;;;;;;5064443;28;20206;-70
2021/04/19 07:26:38;;;;;;;11.00;8.83;;;9.40;99.90;;;;;;5065811;28;20213;-72
2021/04/19 07:29:05;;;;;;;11.37;9.33;;;9.50;99.90;;;;;;5061730;28;20259;-76
2021/04/19 07:31:46;;;;;;;14.10;9.10;;;9.60;99.90;;;;;;5067822;28;20205;-75
2021/04/19 07:34:18;;;;;;;9.97;8.67;;;9.60;99.90;;;;;;5071204;28;20205;-77
2021/04/19 07:36:50;;;;;;;9.67;8.07;;;9.80;99.90;;;;;;5076871;28;20221;-75
2021/04/19 07:39:19;;;;;;;11.37;8.23;;;10.00;99.90;;;;;;5085471;28;20354;-77
2021/04/19 07:41:49;;;;;;;9.50;8.53;;;10.10;99.90;;;;;;5088076;28;20622;-75
2021/04/19 07:44:34;;;;;;;10.13;8.17;;;10.40;99.90;;;;;;5083154;28;20288;-78
2021/04/19 07:47:22;;;;;;;12.13;8.03;;;10.30;99.90;;;;;;5086484;28;20229;-76
2021/04/19 07:49:57;;;;;;;10.43;7.40;;;10.30;99.90;;;;;;5067316;28;20198;-77
2021/04/19 07:52:23;;;;;;;7.87;7.07;;;;;;;;;;5090218;28;20569;-68
2021/04/19 07:55:15;;;;;;;11.47;8.67;;;10.70;99.90;;;;;;5092649;28;20205;-79
2021/04/19 07:57:45;;;;;;;11.13;6.73;;;10.80;99.90;;;;;;5079282;28;20636;-77
2021/04/19 08:00:23;;;;;;;8.50;6.33;;;10.90;99.90;;;;;;5092205;28;20213;-79
2021/04/19 08:02:58;;;;;;;7.97;7.20;;;11.10;99.90;;;;;;5090192;28;20197;-75
2021/04/19 08:05:35;;;;;;;12.97;8.70;;;11.30;99.90;;;;;;5091749;28;20208;-76
2021/04/19 08:08:02;;;;;;;9.43;8.00;;;11.30;99.90;;;;;;5089977;28;20241;-72
2021/04/19 08:10:30;;;;;;;12.57;8.80;;;11.50;99.90;;;;;;5091071;28;20201;-74
2021/04/19 08:13:08;;;;;;;9.67;8.07;;;11.70;99.90;;;;;;5089624;28;20217;-73
2021/04/19 08:15:36;;;;;;;8.30;7.50;;;11.90;99.90;;;;;;5087655;28;20205;-76
2021/04/19 08:18:04;;;;;;;8.87;8.07;;;11.90;99.90;;;;;;5069335;28;20198;-74
2021/04/19 08:20:31;;;;;;;10.23;6.90;;;12.00;99.90;;;;;;5082015;28;20617;-75
2021/04/19 08:23:09;;;;;;;8.27;7.47;;;12.00;99.90;;;;;;5085656;28;20275;-73
2021/04/19 08:25:45;;;;;;;9.43;7.97;;;12.00;99.90;;;;;;5091245;28;20220;-72
2021/04/19 08:28:14;;;;;;;10.23;7.43;;;12.10;99.90;;;;;;5089810;28;20230;-75
2021/04/19 08:30:42;;;;;;;8.90;8.13;;;12.30;99.90;;;;;;5091212;28;20661;-73
2021/04/19 08:33:10;;;;;;;11.67;7.43;;;12.50;99.90;;;;;;5089722;28;20205;-74
2021/04/19 08:35:38;;;;;;;16.60;8.03;;;13.30;99.90;;;;;;5089849;28;20201;-73
2021/04/19 08:38:06;;;;;;;10.37;7.80;;;13.90;99.90;;;;;;5093579;28;20213;-70
2021/04/19 08:40:36;;;;;;;9.17;8.20;;;14.10;99.90;;;;;;5092434;28;20695;-71
2021/04/19 08:43:08;;;;;;;9.57;7.23;;;14.60;99.90;;;;;;5093454;28;20214;-70
2021/04/19 08:45:38;;;;;;;8.73;7.17;;;14.30;99.90;;;;;;5092738;28;20202;-76
2021/04/19 08:48:09;;;;;;;12.20;7.43;;;14.00;99.90;;;;;;5092456;28;20263;-74
2021/04/19 08:50:36;;;;;;;8.90;7.80;;;14.00;99.90;;;;;;5092929;28;20620;-74
2021/04/19 08:53:02;;;;;;;9.27;8.13;;;14.10;99.90;;;;;;5093113;28;20205;-68
2021/04/19 08:55:29;;;;;;;13.23;6.93;;;14.30;99.90;;;;;;5092505;28;20210;-73
2021/04/19 08:57:59;;;;;;;9.30;7.03;;;14.10;99.90;;;;;;5092834;28;20198;-70
2021/04/19 09:00:28;;;;;;;8.87;7.73;;;14.30;99.90;;;;;;5092517;28;20255;-73
2021/04/19 09:02:58;;;;;;;8.60;7.50;;;15.20;99.90;;;;;;5087732;28;20673;-73
2021/04/19 09:05:25;;;;;;;11.20;7.13;;;15.00;99.90;;;;;;5092725;28;20205;-72
2021/04/19 09:08:03;;;;;;;8.70;7.60;;;15.50;99.90;;;;;;5092753;28;20244;-69
2021/04/19 09:10:52;;;;;;;11.30;7.28;;;15.20;99.90;;;;;;5079824;28;20205;-73
2021/04/19 09:13:30;;;;;;;11.18;7.95;;;15.40;99.90;;;;;;5092862;28;20205;-71
2021/04/19 09:16:13;;;;;;;14.38;7.40;;;16.00;99.90;;;;;;5092467;28;20668;-75
2021/04/19 09:18:40;;;;;;;14.55;7.63;;;17.50;99.90;;;;;;5092423;28;20206;-71
2021/04/19 09:21:08;;;;;;;10.88;7.63;;;16.10;99.90;;;;;;5092208;28;20208;-68
2021/04/19 09:23:36;;;;;;;8.05;7.13;;;15.60;99.90;;;;;;5091574;28;20210;-68
2021/04/19 09:26:02;;;;;;;8.50;7.13;;;16.00;99.90;;;;;;5069120;28;20206;-75
2021/04/19 09:28:53;;;;;;;9.00;7.95;;;15.80;99.90;;;;;;5077916;28;20240;-71
2021/04/19 09:31:57;;;;;;;8.43;7.18;;;17.20;99.90;;;;;;5087395;28;20238;-70
2021/04/19 09:34:40;;;;;;;8.63;7.55;;;17.50;99.90;;;;;;5075395;28;20213;-68
2021/04/19 09:37:08;;;;;;;10.27;7.18;;;17.00;99.90;;;;;;5078416;28;20206;-70
2021/04/19 09:39:56;;;;;;;7.45;6.47;;;17.50;99.90;;;;;;5078205;28;20598;-70
2021/04/19 09:43:03;;;;;;;7.50;6.75;;;17.60;99.90;;;;;;5088053;28;20210;-70
2021/04/19 09:45:53;;;;;;;6.15;5.55;;;19.40;99.90;;;;;;5092071;28;20209;-68
2021/04/19 09:48:41;;;;;;;8.30;5.35;;;22.00;99.90;;;;;;5074945;28;20257;-70
2021/04/19 09:51:13;;;;;;;5.68;5.18;;;20.70;99.90;;;;;;5083324;28;20201;-72
2021/04/19 09:53:44;;;;;;;5.70;4.10;;;21.50;99.90;;;;;;5070741;28;20337;-66
2021/04/19 09:56:11;;;;;;;7.25;4.97;;;23.30;99.90;;;;;;5073321;28;20201;-74
2021/04/19 09:58:38;;;;;;;6.00;5.50;;;22.80;99.90;;;;;;5072660;28;20210;-70
2021/04/19 10:01:05;;;;;;;8.52;6.72;;;22.90;99.90;;;;;;5075615;28;20213;-71
2021/04/19 10:03:33;;;;;;;7.47;5.90;;;22.20;99.90;;;;;;5078382;28;20229;-71
2021/04/19 10:06:03;;;;;;;6.85;6.15;;;24.90;99.90;;;;;;5081539;28;20376;-71
2021/04/19 10:08:31;;;;;;;6.07;5.32;;;25.30;99.90;;;;;;5086604;28;20229;-68
2021/04/19 10:10:59;;;;;;;8.30;6.57;;;26.00;99.90;;;;;;5073324;28;20213;-69
2021/04/19 10:13:28;;;;;;;6.72;6.03;;;26.10;99.90;;;;;;5076038;28;20211;-71
2021/04/19 10:16:02;;;;;;;8.73;5.72;;;25.80;99.90;;;;;;5074072;28;20732;-70
2021/04/19 10:18:33;;;;;;;7.10;5.97;;;25.80;99.90;;;;;;5066431;28;20230;-69
2021/04/19 10:21:00;;;;;;;7.60;6.40;;;24.50;99.90;;;;;;5074074;28;20198;-69
2021/04/19 10:23:38;;;;;;;6.97;6.22;;;24.30;99.90;;;;;;5069256;28;20204;-68
2021/04/19 10:26:05;;;;;;;6.78;5.35;;;25.50;99.90;;;;;;5068330;28;20198;-69
2021/04/19 10:28:34;;;;;;;5.65;5.15;;;26.30;99.90;;;;;;5070472;28;20375;-70
2021/04/19 10:31:12;;;;;;;8.88;7.07;;;23.20;99.90;;;;;;5069721;28;20209;-69
2021/04/19 10:33:39;;;;;;;6.50;5.90;;;20.70;99.90;;;;;;5068188;28;20260;-68
2021/04/19 10:36:17;;;;;;;6.65;6.03;;;18.50;99.90;;;;;;5074687;28;20205;-68
2021/04/19 10:38:45;;;;;;;8.93;6.10;;;17.70;99.90;;;;;;5072495;28;20267;-68
2021/04/19 10:41:12;;;;;;;8.63;6.40;;;17.60;99.90;;;;;;5083444;28;20225;-68
2021/04/19 10:43:41;;;;;;;7.50;5.60;;;17.70;99.90;;;;;;5090535;28;20580;-71
2021/04/19 10:46:21;;;;;;;7.13;6.40;;;17.90;99.90;;;;;;5090966;28;20201;-69
2021/04/19 10:48:48;;;;;;;6.80;5.18;;;17.80;99.90;;;;;;5076068;28;20252;-68
2021/04/19 10:51:19;;;;;;;6.95;6.07;;;17.40;99.90;;;;;;5089756;28;20212;-68
2021/04/19 10:53:46;;;;;;;6.75;6.15;;;16.60;99.90;;;;;;5084037;28;20213;-69
2021/04/19 10:56:20;;;;;;;7.13;6.43;;;16.90;99.90;;;;;;5073693;28;20201;-68
2021/04/19 10:58:48;;;;;;;6.00;5.50;;;16.80;99.90;;;;;;5070501;28;20198;-69
2021/04/19 11:01:21;;;;;;;7.43;5.80;;;16.80;99.90;;;;;;5069335;28;20670;-69
2021/04/19 11:03:47;;;;;;;5.60;5.05;;;17.20;99.90;;;;;;5070041;28;20210;-69
2021/04/19 11:06:15;;;;;;;8.40;6.53;;;17.20;99.90;;;;;;5083754;28;20210;-69
2021/04/19 11:09:05;;;;;;;6.68;5.88;;;17.00;99.90;;;;;;5084474;28;20240;-69
2021/04/19 11:11:39;;;;;;;7.43;6.82;;;17.10;99.90;;;;;;5079229;28;20201;-72
2021/04/19 11:14:17;;;;;;;7.72;6.82;;;17.30;99.90;;;;;;5072995;28;20202;-71
2021/04/19 11:16:55;;;;;;;6.28;5.68;;;17.60;99.90;;;;;;5077881;28;20209;-69
2021/04/19 11:19:30;;;;;;;9.15;6.47;;;17.80;99.90;;;;;;5072759;28;20210;-68
2021/04/19 11:21:57;;;;;;;6.82;6.22;;;17.60;99.90;;;;;;5082675;28;20209;-72
2021/04/19 11:24:35;;;;;;;6.60;6.03;;;17.60;99.90;;;;;;5077433;28;20268;-68
2021/04/19 11:27:05;;;;;;;8.35;5.57;;;17.50;99.90;;;;;;5086724;28;20284;-68
2021/04/19 11:29:39;;;;;;;10.02;7.03;;;17.10;99.90;;;;;;5081927;28;20213;-70
2021/04/19 11:32:06;;;;;;;9.75;6.55;;;17.10;99.90;;;;;;5086900;28;20193;-68
2021/04/19 11:34:38;;;;;;;7.65;6.95;;;17.10;99.90;;;;;;5077776;28;20198;-68
2021/04/19 11:37:05;;;;;;;13.27;7.00;;;17.10;99.90;;;;;;5086567;28;20742;-68
2021/04/19 11:39:39;;;;;;;6.90;6.30;;;17.20;99.90;;;;;;5088454;28;20258;-68
2021/04/19 11:42:26;;;;;;;10.05;6.53;;;17.30;99.90;;;;;;5073819;28;20202;-68
2021/04/19 11:44:53;;;;;;;8.10;7.18;;;17.20;99.90;;;;;;5076142;28;20615;-68
2021/04/19 11:47:20;;;;;;;12.00;6.95;;;17.30;99.90;;;;;;5074711;28;20324;-68
2021/04/19 11:49:50;;;;;;;7.10;6.40;;;17.40;99.90;;;;;;5075189;28;20202;-71
2021/04/19 11:52:16;;;;;;;6.68;5.63;;;17.50;99.90;;;;;;5073374;28;20216;-69
2021/04/19 11:54:44;;;;;;;7.78;6.95;;;17.60;99.90;;;;;;5076796;28;20294;-72
2021/04/19 11:57:10;;;;;;;7.05;6.45;;;17.40;99.90;;;;;;5074357;28;20198;-70
2021/04/19 11:59:37;;;;;;;7.65;5.45;;;17.30;99.90;;;;;;5077071;28;20206;-69
2021/04/19 12:02:04;;;;;;;11.13;6.93;;;17.60;99.90;;;;;;5072104;28;20579;-69
2021/04/19 12:04:30;;;;;;;7.10;6.05;;;17.60;99.90;;;;;;5067626;28;20271;-72
2021/04/19 12:06:57;;;;;;;7.22;6.10;;;17.50;99.90;;;;;;5071638;28;20198;-69
2021/04/19 12:09:24;;;;;;;5.65;5.15;;;17.80;99.90;;;;;;5076394;28;20616;-68
2021/04/19 12:11:52;;;;;;;6.25;4.90;;;18.50;99.90;;;;;;5069595;28;20210;-68
2021/04/19 12:14:19;;;;;;;5.53;5.03;;;18.10;99.90;;;;;;5062553;28;20203;-70
2021/04/19 12:16:45;;;;;;;7.32;5.57;;;17.50;99.90;;;;;;5062252;28;20558;-70
2021/04/19 12:19:12;;;;;;;5.72;5.20;;;17.40;99.90;;;;;;5072347;28;20218;-69
2021/04/19 12:21:39;;;;;;;7.25;4.88;;;18.10;99.90;;;;;;5069698;28;20646;-67
2021/04/19 12:24:06;;;;;;;5.03;4.35;;;17.70;99.90;;;;;;5068539;28;20206;-72
2021/04/19 12:26:33;;;;;;;5.68;5.07;;;17.30;99.90;;;;;;5070359;28;20206;-67
2021/04/19 12:29:00;;;;;;;5.30;4.30;;;18.10;99.90;;;;;;5073417;28;20728;-68
2021/04/19 12:31:27;;;;;;;9.32;5.28;;;17.80;99.90;;;;;;5072253;28;20210;-69
2021/04/19 12:33:53;;;;;;;5.18;4.40;;;17.90;99.90;;;;;;5078959;28;20205;-69
2021/04/19 12:36:20;;;;;;;5.82;4.85;;;17.70;99.90;;;;;;5086428;28;20202;-68
2021/04/19 12:38:47;;;;;;;5.38;4.85;;;18.00;99.90;;;;;;5078887;28;20210;-73
2021/04/19 12:41:13;;;;;;;6.18;4.88;;;18.30;99.90;;;;;;5082424;28;20206;-69
2021/04/19 12:43:40;;;;;;;5.35;4.35;;;18.70;99.90;;;;;;5085288;28;20216;-68
2021/04/19 12:46:07;;;;;;;5.03;4.60;;;18.80;99.90;;;;;;5082070;28;20209;-70
2021/04/19 12:48:34;;;;;;;5.55;4.88;;;18.80;99.90;;;;;;5083540;28;20271;-68
2021/04/19 12:51:00;;;;;;;4.65;4.25;;;18.80;99.90;;;;;;5076708;28;20206;-71
2021/04/19 12:53:27;;;;;;;5.63;5.13;;;18.70;99.90;;;;;;5073824;28;20230;-71
2021/04/19 12:55:53;;;;;;;9.05;4.50;;;18.70;99.90;;;;;;5076573;28;20205;-70
2021/04/19 12:58:20;;;;;;;5.55;4.63;;;18.40;99.90;;;;;;5079759;28;20205;-70